Northwood, North Dakota
Current Conditions -  °F | °C
As of 9:10 PM on Saturday 20 Dec 2014 (Local Time) from KRDR Reporting Station
Overcast Overcast  
Wind Chill: 20°   Ceiling: 500
Heat Index: 30°   Visibility: 7mi
Dew Point: 30°   Wind: 13mph
Humidity: 100%   Direction: 190°S
Pressure: 29.87"   Gusts: NA
Location:  47.73°N, 97.57°W
Report Text: KRDR 210310Z AUTO 19011KT 7SM R35/5500FT OVC005 M01/M01 A2987 RMK AO2 UPE0305
Loading
Personal Weather Stations






























Interactive Weather Map New forecast layout! Learn more

10-Day Weather Forecast

Advertisements
Track Severe Weather on mobile